sensor_id;sensor_type;location;lat;lon;timestamp;pressure;altitude;pressure_sealevel;temperature;humidity
36598;BME280;22607;49.550;11.940;2023-05-20T00:01:33;97106.06;;;14.42;100.00
36598;BME280;22607;49.550;11.940;2023-05-20T00:03:59;97115.19;;;14.40;100.00
36598;BME280;22607;49.550;11.940;2023-05-20T00:06:26;97116.38;;;14.37;100.00
36598;BME280;22607;49.550;11.940;2023-05-20T00:08:53;97115.88;;;14.27;100.00
36598;BME280;22607;49.550;11.940;2023-05-20T00:11:20;97108.75;;;14.27;100.00
36598;BME280;22607;49.550;11.940;2023-05-20T00:13:48;97109.13;;;14.46;100.00
36598;BME280;22607;49.550;11.940;2023-05-20T00:16:14;97114.41;;;14.46;100.00
36598;BME280;22607;49.550;11.940;2023-05-20T00:18:41;97105.03;;;14.43;100.00
36598;BME280;22607;49.550;11.940;2023-05-20T00:21:08;97098.31;;;14.41;100.00
36598;BME280;22607;49.550;11.940;2023-05-20T00:23:34;97099.38;;;14.47;100.00
36598;BME280;22607;49.550;11.940;2023-05-20T00:26:01;97098.44;;;14.33;100.00
36598;BME280;22607;49.550;11.940;2023-05-20T00:28:27;97094.66;;;14.42;100.00
36598;BME280;22607;49.550;11.940;2023-05-20T00:30:55;97088.88;;;14.53;100.00
36598;BME280;22607;49.550;11.940;2023-05-20T00:33:21;97089.06;;;14.30;100.00
36598;BME280;22607;49.550;11.940;2023-05-20T00:35:48;97086.00;;;14.26;100.00
36598;BME280;22607;49.550;11.940;2023-05-20T00:38:14;97088.34;;;14.36;100.00
36598;BME280;22607;49.550;11.940;2023-05-20T00:40:41;97079.94;;;14.33;100.00
36598;BME280;22607;49.550;11.940;2023-05-20T00:43:10;97092.78;;;14.36;100.00
36598;BME280;22607;49.550;11.940;2023-05-20T00:45:37;97092.34;;;14.32;100.00
36598;BME280;22607;49.550;11.940;2023-05-20T00:48:05;97101.25;;;14.31;100.00
36598;BME280;22607;49.550;11.940;2023-05-20T00:50:32;97101.03;;;14.26;100.00
36598;BME280;22607;49.550;11.940;2023-05-20T00:52:59;97095.56;;;14.27;100.00
36598;BME280;22607;49.550;11.940;2023-05-20T00:55:26;97091.84;;;14.00;100.00
36598;BME280;22607;49.550;11.940;2023-05-20T00:57:53;97095.75;;;14.26;100.00
36598;BME280;22607;49.550;11.940;2023-05-20T01:00:20;97084.56;;;14.24;100.00
36598;BME280;22607;49.550;11.940;2023-05-20T01:02:46;97077.75;;;14.14;100.00
36598;BME280;22607;49.550;11.940;2023-05-20T01:05:13;97085.69;;;14.14;100.00
36598;BME280;22607;49.550;11.940;2023-05-20T01:07:40;97083.03;;;13.93;100.00
36598;BME280;22607;49.550;11.940;2023-05-20T01:10:07;97062.31;;;13.89;100.00
36598;BME280;22607;49.550;11.940;2023-05-20T01:12:38;97067.94;;;13.86;100.00
36598;BME280;22607;49.550;11.940;2023-05-20T01:15:09;97064.81;;;13.98;100.00
36598;BME280;22607;49.550;11.940;2023-05-20T01:17:43;97072.03;;;13.89;100.00
36598;BME280;22607;49.550;11.940;2023-05-20T01:20:13;97076.34;;;13.75;100.00
36598;BME280;22607;49.550;11.940;2023-05-20T01:25:13;97056.63;;;13.71;100.00
36598;BME280;22607;49.550;11.940;2023-05-20T01:27:40;97060.91;;;13.72;100.00
36598;BME280;22607;49.550;11.940;2023-05-20T01:30:07;97056.56;;;13.64;100.00
36598;BME280;22607;49.550;11.940;2023-05-20T01:32:38;97049.16;;;13.74;100.00
36598;BME280;22607;49.550;11.940;2023-05-20T01:35:06;97056.41;;;13.50;100.00
36598;BME280;22607;49.550;11.940;2023-05-20T01:37:39;97055.72;;;13.63;100.00
36598;BME280;22607;49.550;11.940;2023-05-20T01:40:07;97061.38;;;13.60;100.00
36598;BME280;22607;49.550;11.940;2023-05-20T01:42:36;97061.50;;;13.52;100.00
36598;BME280;22607;49.550;11.940;2023-05-20T01:45:04;97061.19;;;13.47;100.00
36598;BME280;22607;49.550;11.940;2023-05-20T01:47:31;97052.94;;;13.50;100.00
36598;BME280;22607;49.550;11.940;2023-05-20T01:49:58;97058.13;;;13.28;100.00
36598;BME280;22607;49.550;11.940;2023-05-20T01:52:24;97058.69;;;13.38;100.00
36598;BME280;22607;49.550;11.940;2023-05-20T01:54:52;97051.31;;;13.49;100.00
36598;BME280;22607;49.550;11.940;2023-05-20T01:57:20;97053.56;;;13.37;100.00
36598;BME280;22607;49.550;11.940;2023-05-20T01:59:47;97043.81;;;13.37;100.00
36598;BME280;22607;49.550;11.940;2023-05-20T02:02:14;97049.56;;;13.56;100.00
36598;BME280;22607;49.550;11.940;2023-05-20T02:04:43;97042.09;;;13.45;100.00
36598;BME280;22607;49.550;11.940;2023-05-20T02:07:17;97042.47;;;13.42;100.00
36598;BME280;22607;49.550;11.940;2023-05-20T02:09:46;97051.03;;;13.29;100.00
36598;BME280;22607;49.550;11.940;2023-05-20T02:12:12;97043.41;;;13.19;100.00
36598;BME280;22607;49.550;11.940;2023-05-20T02:14:43;97049.31;;;13.36;100.00
36598;BME280;22607;49.550;11.940;2023-05-20T02:17:11;97046.94;;;13.26;100.00
36598;BME280;22607;49.550;11.940;2023-05-20T02:19:40;97044.22;;;13.34;100.00
36598;BME280;22607;49.550;11.940;2023-05-20T02:22:07;97032.38;;;13.45;100.00
36598;BME280;22607;49.550;11.940;2023-05-20T02:24:33;97036.56;;;13.39;100.00
36598;BME280;22607;49.550;11.940;2023-05-20T02:27:32;97033.66;;;13.34;100.00
36598;BME280;22607;49.550;11.940;2023-05-20T02:29:59;97035.13;;;13.22;100.00
36598;BME280;22607;49.550;11.940;2023-05-20T02:32:26;97040.84;;;13.25;100.00
36598;BME280;22607;49.550;11.940;2023-05-20T02:34:54;97050.69;;;13.32;100.00
36598;BME280;22607;49.550;11.940;2023-05-20T02:37:20;97046.44;;;13.16;100.00
36598;BME280;22607;49.550;11.940;2023-05-20T02:39:47;97039.13;;;13.18;100.00
36598;BME280;22607;49.550;11.940;2023-05-20T02:42:14;97041.59;;;13.19;100.00
36598;BME280;22607;49.550;11.940;2023-05-20T02:44:44;97040.66;;;13.27;100.00
36598;BME280;22607;49.550;11.940;2023-05-20T02:47:12;97047.31;;;13.23;100.00
36598;BME280;22607;49.550;11.940;2023-05-20T02:49:39;97042.78;;;13.17;100.00
36598;BME280;22607;49.550;11.940;2023-05-20T02:52:06;97056.78;;;13.02;100.00
36598;BME280;22607;49.550;11.940;2023-05-20T02:54:34;97055.53;;;13.13;100.00
36598;BME280;22607;49.550;11.940;2023-05-20T02:57:00;97042.69;;;13.10;100.00
36598;BME280;22607;49.550;11.940;2023-05-20T02:59:27;97052.13;;;13.04;100.00
36598;BME280;22607;49.550;11.940;2023-05-20T03:01:54;97054.88;;;13.11;100.00
36598;BME280;22607;49.550;11.940;2023-05-20T03:04:20;97053.31;;;13.17;100.00
36598;BME280;22607;49.550;11.940;2023-05-20T03:06:51;97049.97;;;13.08;100.00
36598;BME280;22607;49.550;11.940;2023-05-20T03:09:18;97042.59;;;13.03;100.00
36598;BME280;22607;49.550;11.940;2023-05-20T03:11:44;97051.34;;;13.04;100.00
36598;BME280;22607;49.550;11.940;2023-05-20T03:14:12;97044.31;;;13.11;100.00
36598;BME280;22607;49.550;11.940;2023-05-20T03:16:39;97062.06;;;13.02;100.00
36598;BME280;22607;49.550;11.940;2023-05-20T03:19:06;97058.69;;;13.08;100.00
36598;BME280;22607;49.550;11.940;2023-05-20T03:21:34;97057.06;;;13.07;100.00
36598;BME280;22607;49.550;11.940;2023-05-20T03:24:00;97061.25;;;13.02;100.00
36598;BME280;22607;49.550;11.940;2023-05-20T03:26:27;97056.53;;;12.97;100.00
36598;BME280;22607;49.550;11.940;2023-05-20T03:28:55;97064.63;;;13.10;100.00
36598;BME280;22607;49.550;11.940;2023-05-20T03:31:22;97044.06;;;13.21;100.00
36598;BME280;22607;49.550;11.940;2023-05-20T03:33:48;97047.25;;;13.01;100.00
36598;BME280;22607;49.550;11.940;2023-05-20T03:36:15;97050.78;;;13.08;100.00
36598;BME280;22607;49.550;11.940;2023-05-20T03:38:46;97047.34;;;12.93;100.00
36598;BME280;22607;49.550;11.940;2023-05-20T03:41:12;97051.16;;;13.05;100.00
36598;BME280;22607;49.550;11.940;2023-05-20T03:43:39;97056.63;;;13.04;100.00
36598;BME280;22607;49.550;11.940;2023-05-20T03:46:06;97046.59;;;12.84;100.00
36598;BME280;22607;49.550;11.940;2023-05-20T03:48:33;97060.44;;;13.01;100.00
36598;BME280;22607;49.550;11.940;2023-05-20T03:51:00;97060.22;;;13.18;100.00
36598;BME280;22607;49.550;11.940;2023-05-20T03:53:27;97057.31;;;13.12;100.00
36598;BME280;22607;49.550;11.940;2023-05-20T03:55:53;97060.16;;;12.96;100.00
36598;BME280;22607;49.550;11.940;2023-05-20T03:58:20;97067.03;;;13.12;100.00
36598;BME280;22607;49.550;11.940;2023-05-20T04:00:47;97065.50;;;13.03;100.00
36598;BME280;22607;49.550;11.940;2023-05-20T04:03:14;97067.97;;;13.04;100.00
36598;BME280;22607;49.550;11.940;2023-05-20T04:05:41;97064.06;;;13.15;100.00
36598;BME280;22607;49.550;11.940;2023-05-20T04:08:07;97073.25;;;13.19;100.00
36598;BME280;22607;49.550;11.940;2023-05-20T04:10:35;97073.22;;;13.34;100.00
36598;BME280;22607;49.550;11.940;2023-05-20T04:13:02;97070.16;;;13.31;100.00
36598;BME280;22607;49.550;11.940;2023-05-20T04:15:28;97062.78;;;13.26;100.00
36598;BME280;22607;49.550;11.940;2023-05-20T04:17:56;97068.88;;;13.26;100.00
36598;BME280;22607;49.550;11.940;2023-05-20T04:20:22;97066.50;;;13.17;100.00
36598;BME280;22607;49.550;11.940;2023-05-20T04:22:49;97066.16;;;13.20;100.00
36598;BME280;22607;49.550;11.940;2023-05-20T04:25:16;97069.22;;;13.23;100.00
36598;BME280;22607;49.550;11.940;2023-05-20T04:27:43;97063.53;;;13.20;100.00
36598;BME280;22607;49.550;11.940;2023-05-20T04:30:10;97065.69;;;13.31;100.00
36598;BME280;22607;49.550;11.940;2023-05-20T04:32:37;97058.69;;;13.38;100.00
36598;BME280;22607;49.550;11.940;2023-05-20T04:35:04;97055.47;;;13.28;100.00
36598;BME280;22607;49.550;11.940;2023-05-20T04:37:37;97065.66;;;13.46;100.00
36598;BME280;22607;49.550;11.940;2023-05-20T04:40:11;97058.78;;;13.30;100.00
36598;BME280;22607;49.550;11.940;2023-05-20T04:42:37;97063.69;;;13.33;100.00
36598;BME280;22607;49.550;11.940;2023-05-20T04:45:05;97071.69;;;13.40;100.00
36598;BME280;22607;49.550;11.940;2023-05-20T04:47:34;97071.47;;;13.42;100.00
36598;BME280;22607;49.550;11.940;2023-05-20T04:50:06;97059.03;;;13.50;100.00
36598;BME280;22607;49.550;11.940;2023-05-20T04:52:39;97062.28;;;13.68;100.00
36598;BME280;22607;49.550;11.940;2023-05-20T04:55:08;97056.00;;;14.12;100.00
36598;BME280;22607;49.550;11.940;2023-05-20T04:57:36;97049.69;;;14.86;100.00
36598;BME280;22607;49.550;11.940;2023-05-20T05:00:05;97047.97;;;15.55;100.00
36598;BME280;22607;49.550;11.940;2023-05-20T05:02:34;97052.59;;;16.36;97.89
36598;BME280;22607;49.550;11.940;2023-05-20T05:05:01;97051.78;;;16.49;94.51
36598;BME280;22607;49.550;11.940;2023-05-20T05:07:28;97051.16;;;16.67;91.10
36598;BME280;22607;49.550;11.940;2023-05-20T05:09:55;97044.59;;;16.83;88.03
36598;BME280;22607;49.550;11.940;2023-05-20T05:12:22;97048.81;;;17.18;83.49
36598;BME280;22607;49.550;11.940;2023-05-20T05:14:48;97045.34;;;17.17;81.64
36598;BME280;22607;49.550;11.940;2023-05-20T05:17:15;97053.19;;;17.51;81.08
36598;BME280;22607;49.550;11.940;2023-05-20T05:19:42;97042.50;;;17.65;79.42
36598;BME280;22607;49.550;11.940;2023-05-20T05:22:08;97034.38;;;17.92;77.20
36598;BME280;22607;49.550;11.940;2023-05-20T05:24:35;97036.44;;;17.83;76.46
36598;BME280;22607;49.550;11.940;2023-05-20T05:27:01;97031.78;;;18.17;75.62
36598;BME280;22607;49.550;11.940;2023-05-20T05:29:28;97032.34;;;18.70;72.34
36598;BME280;22607;49.550;11.940;2023-05-20T05:31:54;97024.47;;;19.20;68.27
36598;BME280;22607;49.550;11.940;2023-05-20T05:34:21;97024.38;;;18.89;68.47
36598;BME280;22607;49.550;11.940;2023-05-20T05:36:47;97026.50;;;18.36;70.44
36598;BME280;22607;49.550;11.940;2023-05-20T05:39:14;97026.84;;;18.21;70.00
36598;BME280;22607;49.550;11.940;2023-05-20T05:41:40;97026.84;;;18.21;72.41
36598;BME280;22607;49.550;11.940;2023-05-20T05:44:07;97023.41;;;18.14;74.66
36598;BME280;22607;49.550;11.940;2023-05-20T05:46:33;97011.03;;;18.26;70.31
36598;BME280;22607;49.550;11.940;2023-05-20T05:49:00;97021.63;;;18.77;69.20
36598;BME280;22607;49.550;11.940;2023-05-20T05:51:27;97018.22;;;18.88;66.37
36598;BME280;22607;49.550;11.940;2023-05-20T05:53:54;97018.78;;;18.53;68.91
36598;BME280;22607;49.550;11.940;2023-05-20T05:56:21;97016.50;;;18.57;67.53
36598;BME280;22607;49.550;11.940;2023-05-20T05:58:48;97018.25;;;19.26;66.04
36598;BME280;22607;49.550;11.940;2023-05-20T06:01:14;97016.72;;;19.49;64.63
36598;BME280;22607;49.550;11.940;2023-05-20T06:03:41;97012.53;;;20.14;62.25
36598;BME280;22607;49.550;11.940;2023-05-20T06:06:08;97004.22;;;20.46;60.87
36598;BME280;22607;49.550;11.940;2023-05-20T06:08:34;97005.00;;;19.68;62.31
36598;BME280;22607;49.550;11.940;2023-05-20T06:11:01;97015.91;;;20.10;61.93
36598;BME280;22607;49.550;11.940;2023-05-20T06:13:27;97011.16;;;20.36;60.19
36598;BME280;22607;49.550;11.940;2023-05-20T06:15:54;97010.59;;;20.45;59.63
36598;BME280;22607;49.550;11.940;2023-05-20T06:18:20;97009.19;;;20.79;59.00
36598;BME280;22607;49.550;11.940;2023-05-20T06:20:54;97007.47;;;20.72;57.96
36598;BME280;22607;49.550;11.940;2023-05-20T06:23:21;96988.59;;;20.50;57.34
36598;BME280;22607;49.550;11.940;2023-05-20T06:25:47;97005.59;;;20.25;58.15
36598;BME280;22607;49.550;11.940;2023-05-20T06:28:14;97001.22;;;20.55;57.25
36598;BME280;22607;49.550;11.940;2023-05-20T06:30:41;97010.28;;;20.54;57.09
36598;BME280;22607;49.550;11.940;2023-05-20T06:33:07;97002.25;;;20.66;56.92
36598;BME280;22607;49.550;11.940;2023-05-20T06:35:34;97006.78;;;20.53;57.04
36598;BME280;22607;49.550;11.940;2023-05-20T06:38:01;96999.81;;;20.64;56.82
36598;BME280;22607;49.550;11.940;2023-05-20T06:40:28;96994.16;;;20.49;55.80
36598;BME280;22607;49.550;11.940;2023-05-20T06:42:54;96993.56;;;20.35;56.54
36598;BME280;22607;49.550;11.940;2023-05-20T06:45:21;96987.53;;;20.15;57.43
36598;BME280;22607;49.550;11.940;2023-05-20T06:47:48;96991.91;;;20.69;57.16
36598;BME280;22607;49.550;11.940;2023-05-20T06:50:15;96994.59;;;20.57;56.52
36598;BME280;22607;49.550;11.940;2023-05-20T06:52:42;97001.19;;;20.19;56.99
36598;BME280;22607;49.550;11.940;2023-05-20T06:55:08;97005.91;;;19.62;59.46
36598;BME280;22607;49.550;11.940;2023-05-20T06:57:35;97014.63;;;19.70;59.39
36598;BME280;22607;49.550;11.940;2023-05-20T07:00:03;97004.91;;;20.18;59.10
36598;BME280;22607;49.550;11.940;2023-05-20T07:02:32;96996.31;;;20.16;58.40
36598;BME280;22607;49.550;11.940;2023-05-20T07:04:59;96991.69;;;20.59;56.44
36598;BME280;22607;49.550;11.940;2023-05-20T07:07:25;96991.13;;;20.69;57.37
36598;BME280;22607;49.550;11.940;2023-05-20T07:09:53;96988.69;;;20.19;57.07
36598;BME280;22607;49.550;11.940;2023-05-20T07:12:20;96983.44;;;20.96;56.76
36598;BME280;22607;49.550;11.940;2023-05-20T07:14:48;96985.34;;;21.54;54.25
36598;BME280;22607;49.550;11.940;2023-05-20T07:17:15;96970.69;;;21.86;54.29
36598;BME280;22607;49.550;11.940;2023-05-20T07:19:42;96965.75;;;22.12;52.32
36598;BME280;22607;49.550;11.940;2023-05-20T07:22:08;96962.66;;;22.54;52.39
36598;BME280;22607;49.550;11.940;2023-05-20T07:24:35;96974.50;;;21.61;52.33
36598;BME280;22607;49.550;11.940;2023-05-20T07:27:02;96967.91;;;21.34;53.11
36598;BME280;22607;49.550;11.940;2023-05-20T07:29:30;96974.06;;;21.23;53.51
36598;BME280;22607;49.550;11.940;2023-05-20T07:31:57;96969.94;;;21.15;53.91
36598;BME280;22607;49.550;11.940;2023-05-20T07:34:23;96975.94;;;21.51;53.69
36598;BME280;22607;49.550;11.940;2023-05-20T07:36:50;96971.25;;;21.30;52.75
36598;BME280;22607;49.550;11.940;2023-05-20T07:39:16;96971.69;;;21.68;52.95
36598;BME280;22607;49.550;11.940;2023-05-20T07:41:43;96972.94;;;21.19;53.76
36598;BME280;22607;49.550;11.940;2023-05-20T07:44:10;96978.38;;;21.24;54.77
36598;BME280;22607;49.550;11.940;2023-05-20T07:46:38;96971.06;;;21.48;55.31
36598;BME280;22607;49.550;11.940;2023-05-20T07:49:05;96971.44;;;21.69;54.26
36598;BME280;22607;49.550;11.940;2023-05-20T07:51:31;96962.91;;;22.36;51.83
36598;BME280;22607;49.550;11.940;2023-05-20T07:53:58;96963.91;;;22.69;51.31
36598;BME280;22607;49.550;11.940;2023-05-20T07:56:25;96964.72;;;22.92;50.05
36598;BME280;22607;49.550;11.940;2023-05-20T07:58:53;96955.56;;;22.48;50.28
36598;BME280;22607;49.550;11.940;2023-05-20T08:01:20;96963.69;;;22.53;51.85
36598;BME280;22607;49.550;11.940;2023-05-20T08:03:47;96960.13;;;23.10;51.31
36598;BME280;22607;49.550;11.940;2023-05-20T08:06:14;96962.69;;;23.49;50.40
36598;BME280;22607;49.550;11.940;2023-05-20T08:08:41;96959.38;;;22.92;49.18
36598;BME280;22607;49.550;11.940;2023-05-20T08:11:08;96958.88;;;22.95;51.41
36598;BME280;22607;49.550;11.940;2023-05-20T08:13:36;96968.22;;;22.53;49.59
36598;BME280;22607;49.550;11.940;2023-05-20T08:16:03;96968.94;;;22.48;50.35
36598;BME280;22607;49.550;11.940;2023-05-20T08:18:31;96966.78;;;22.11;51.09
36598;BME280;22607;49.550;11.940;2023-05-20T08:20:59;96969.56;;;22.73;51.50
36598;BME280;22607;49.550;11.940;2023-05-20T08:23:26;96964.50;;;22.37;50.74
36598;BME280;22607;49.550;11.940;2023-05-20T08:25:52;96946.69;;;23.04;50.54
36598;BME280;22607;49.550;11.940;2023-05-20T08:28:21;96964.91;;;22.63;49.83
36598;BME280;22607;49.550;11.940;2023-05-20T08:30:49;96951.88;;;21.98;51.23
36598;BME280;22607;49.550;11.940;2023-05-20T08:33:15;96959.16;;;22.37;51.26
36598;BME280;22607;49.550;11.940;2023-05-20T08:35:43;96953.63;;;22.61;51.36
36598;BME280;22607;49.550;11.940;2023-05-20T08:38:09;96968.09;;;22.08;50.82
36598;BME280;22607;49.550;11.940;2023-05-20T08:40:36;96976.50;;;21.83;52.20
36598;BME280;22607;49.550;11.940;2023-05-20T08:43:03;96961.75;;;21.80;51.41
36598;BME280;22607;49.550;11.940;2023-05-20T08:45:33;96961.44;;;21.18;51.97
36598;BME280;22607;49.550;11.940;2023-05-20T08:48:00;96964.06;;;21.59;52.43
36598;BME280;22607;49.550;11.940;2023-05-20T08:50:28;96947.19;;;21.88;51.47
36598;BME280;22607;49.550;11.940;2023-05-20T08:52:56;96959.63;;;22.34;52.27
36598;BME280;22607;49.550;11.940;2023-05-20T08:55:36;96957.50;;;22.70;51.15
36598;BME280;22607;49.550;11.940;2023-05-20T08:58:03;96963.06;;;22.86;50.37
36598;BME280;22607;49.550;11.940;2023-05-20T09:00:30;96964.34;;;22.43;50.22
36598;BME280;22607;49.550;11.940;2023-05-20T09:02:58;96965.47;;;22.48;50.32
36598;BME280;22607;49.550;11.940;2023-05-20T09:05:26;96955.81;;;22.47;49.91
36598;BME280;22607;49.550;11.940;2023-05-20T09:08:04;96955.19;;;22.22;50.24
36598;BME280;22607;49.550;11.940;2023-05-20T09:10:32;96958.84;;;22.33;50.87
36598;BME280;22607;49.550;11.940;2023-05-20T09:13:02;96954.56;;;21.81;51.20
36598;BME280;22607;49.550;11.940;2023-05-20T09:15:30;96960.41;;;21.95;50.83
36598;BME280;22607;49.550;11.940;2023-05-20T09:18:02;96951.88;;;21.81;51.84
36598;BME280;22607;49.550;11.940;2023-05-20T09:20:29;96969.34;;;21.71;52.02
36598;BME280;22607;49.550;11.940;2023-05-20T09:22:58;96956.06;;;22.62;51.09
36598;BME280;22607;49.550;11.940;2023-05-20T09:25:26;96963.34;;;22.50;50.09
36598;BME280;22607;49.550;11.940;2023-05-20T09:27:54;96958.59;;;22.35;50.53
36598;BME280;22607;49.550;11.940;2023-05-20T09:30:22;96964.47;;;21.68;51.65
36598;BME280;22607;49.550;11.940;2023-05-20T09:32:56;96973.16;;;21.29;52.94
36598;BME280;22607;49.550;11.940;2023-05-20T09:35:26;96971.63;;;21.21;53.88
36598;BME280;22607;49.550;11.940;2023-05-20T09:37:55;96950.03;;;21.52;53.11
36598;BME280;22607;49.550;11.940;2023-05-20T09:40:26;96966.25;;;22.48;51.65
36598;BME280;22607;49.550;11.940;2023-05-20T09:42:58;96952.06;;;22.25;53.23
36598;BME280;22607;49.550;11.940;2023-05-20T09:45:27;96950.53;;;22.69;49.81
36598;BME280;22607;49.550;11.940;2023-05-20T09:47:54;96958.44;;;22.59;52.42
36598;BME280;22607;49.550;11.940;2023-05-20T09:50:23;96936.47;;;23.01;50.38
36598;BME280;22607;49.550;11.940;2023-05-20T09:52:51;96940.19;;;23.00;51.57
36598;BME280;22607;49.550;11.940;2023-05-20T09:55:19;96938.47;;;21.63;51.11
36598;BME280;22607;49.550;11.940;2023-05-20T09:57:46;96936.16;;;22.01;51.48
36598;BME280;22607;49.550;11.940;2023-05-20T10:00:13;96936.63;;;22.33;50.91
36598;BME280;22607;49.550;11.940;2023-05-20T10:02:44;96929.03;;;21.90;51.25
36598;BME280;22607;49.550;11.940;2023-05-20T10:05:23;96939.97;;;22.06;51.94
36598;BME280;22607;49.550;11.940;2023-05-20T10:11:01;96911.31;;;21.84;53.12
36598;BME280;22607;49.550;11.940;2023-05-20T10:22:02;96928.63;;;21.35;54.96
36598;BME280;22607;49.550;11.940;2023-05-20T10:24:32;96911.72;;;21.75;53.54
36598;BME280;22607;49.550;11.940;2023-05-20T10:27:02;96916.22;;;22.26;52.80
36598;BME280;22607;49.550;11.940;2023-05-20T10:29:29;96910.94;;;22.71;51.31
36598;BME280;22607;49.550;11.940;2023-05-20T10:31:55;96913.34;;;22.73;50.81
36598;BME280;22607;49.550;11.940;2023-05-20T10:34:22;96912.41;;;22.62;51.97
36598;BME280;22607;49.550;11.940;2023-05-20T10:39:27;96907.31;;;22.83;50.99
36598;BME280;22607;49.550;11.940;2023-05-20T10:42:07;96897.72;;;22.25;51.85
36598;BME280;22607;49.550;11.940;2023-05-20T10:44:44;96899.72;;;21.95;52.33
36598;BME280;22607;49.550;11.940;2023-05-20T10:47:12;96900.13;;;21.87;53.86
36598;BME280;22607;49.550;11.940;2023-05-20T10:49:45;96897.44;;;22.43;51.54
36598;BME280;22607;49.550;11.940;2023-05-20T10:52:13;96893.63;;;23.01;52.43
36598;BME280;22607;49.550;11.940;2023-05-20T10:54:45;96886.25;;;23.41;51.33
36598;BME280;22607;49.550;11.940;2023-05-20T10:57:14;96883.59;;;23.41;50.12
36598;BME280;22607;49.550;11.940;2023-05-20T10:59:40;96890.34;;;22.99;49.91
36598;BME280;22607;49.550;11.940;2023-05-20T11:02:09;96883.97;;;23.28;50.19
36598;BME280;22607;49.550;11.940;2023-05-20T11:04:38;96892.44;;;23.19;50.00
36598;BME280;22607;49.550;11.940;2023-05-20T11:07:04;96894.34;;;23.19;50.19
36598;BME280;22607;49.550;11.940;2023-05-20T11:09:31;96886.75;;;23.11;50.18
36598;BME280;22607;49.550;11.940;2023-05-20T11:11:59;96876.56;;;23.13;49.31
36598;BME280;22607;49.550;11.940;2023-05-20T11:14:28;96873.59;;;22.81;51.28
36598;BME280;22607;49.550;11.940;2023-05-20T11:16:57;96870.38;;;23.07;49.24
36598;BME280;22607;49.550;11.940;2023-05-20T11:19:24;96846.53;;;23.05;50.28
36598;BME280;22607;49.550;11.940;2023-05-20T11:21:52;96852.72;;;23.33;51.26
36598;BME280;22607;49.550;11.940;2023-05-20T11:24:24;96850.22;;;23.59;49.22
36598;BME280;22607;49.550;11.940;2023-05-20T11:26:55;96854.78;;;23.59;50.72
36598;BME280;22607;49.550;11.940;2023-05-20T11:29:25;96857.56;;;23.75;49.79
36598;BME280;22607;49.550;11.940;2023-05-20T11:31:51;96840.13;;;23.72;50.21
36598;BME280;22607;49.550;11.940;2023-05-20T11:34:21;96843.47;;;23.90;50.17
36598;BME280;22607;49.550;11.940;2023-05-20T11:36:57;96834.25;;;23.70;49.63
36598;BME280;22607;49.550;11.940;2023-05-20T11:39:25;96851.72;;;23.45;51.19
36598;BME280;22607;49.550;11.940;2023-05-20T11:41:56;96828.59;;;23.33;51.14
36598;BME280;22607;49.550;11.940;2023-05-20T11:44:23;96824.97;;;23.50;50.64
36598;BME280;22607;49.550;11.940;2023-05-20T11:46:50;96823.84;;;23.46;51.26
36598;BME280;22607;49.550;11.940;2023-05-20T11:49:16;96823.78;;;23.36;51.77
36598;BME280;22607;49.550;11.940;2023-05-20T11:51:44;96815.50;;;23.75;52.05
36598;BME280;22607;49.550;11.940;2023-05-20T11:54:10;96826.34;;;23.96;51.41
36598;BME280;22607;49.550;11.940;2023-05-20T11:56:38;96829.28;;;24.43;51.00
36598;BME280;22607;49.550;11.940;2023-05-20T11:59:08;96828.69;;;24.30;49.80
36598;BME280;22607;49.550;11.940;2023-05-20T12:01:37;96825.97;;;24.25;49.62
36598;BME280;22607;49.550;11.940;2023-05-20T12:04:08;96830.31;;;24.26;50.02
36598;BME280;22607;49.550;11.940;2023-05-20T12:06:35;96825.19;;;24.24;49.33
36598;BME280;22607;49.550;11.940;2023-05-20T12:09:04;96817.50;;;23.95;49.21
36598;BME280;22607;49.550;11.940;2023-05-20T12:11:38;96824.16;;;23.93;49.16
36598;BME280;22607;49.550;11.940;2023-05-20T12:14:08;96824.88;;;24.16;49.28
36598;BME280;22607;49.550;11.940;2023-05-20T12:16:35;96818.91;;;24.08;49.76
36598;BME280;22607;49.550;11.940;2023-05-20T12:19:03;96819.63;;;24.47;50.20
36598;BME280;22607;49.550;11.940;2023-05-20T12:21:30;96802.84;;;24.88;49.13
36598;BME280;22607;49.550;11.940;2023-05-20T12:23:59;96803.31;;;24.69;47.91
36598;BME280;22607;49.550;11.940;2023-05-20T12:26:27;96798.56;;;24.97;47.70
36598;BME280;22607;49.550;11.940;2023-05-20T12:28:54;96798.84;;;24.96;48.43
36598;BME280;22607;49.550;11.940;2023-05-20T12:31:21;96792.16;;;25.09;47.76
36598;BME280;22607;49.550;11.940;2023-05-20T12:33:48;96798.88;;;25.16;47.42
36598;BME280;22607;49.550;11.940;2023-05-20T12:36:14;96796.44;;;24.99;48.51
36598;BME280;22607;49.550;11.940;2023-05-20T12:38:42;96804.25;;;25.01;48.21
36598;BME280;22607;49.550;11.940;2023-05-20T12:41:08;96802.91;;;25.19;47.59
36598;BME280;22607;49.550;11.940;2023-05-20T12:43:36;96790.25;;;25.46;45.66
36598;BME280;22607;49.550;11.940;2023-05-20T12:46:05;96795.09;;;25.12;44.88
36598;BME280;22607;49.550;11.940;2023-05-20T12:48:31;96801.56;;;25.06;44.17
36598;BME280;22607;49.550;11.940;2023-05-20T12:50:58;96785.97;;;24.98;45.85
36598;BME280;22607;49.550;11.940;2023-05-20T12:53:25;96784.34;;;25.17;45.37
36598;BME280;22607;49.550;11.940;2023-05-20T12:55:51;96794.31;;;25.33;45.70
36598;BME280;22607;49.550;11.940;2023-05-20T12:58:18;96778.19;;;25.38;45.35
36598;BME280;22607;49.550;11.940;2023-05-20T13:00:45;96779.81;;;25.08;46.19
36598;BME280;22607;49.550;11.940;2023-05-20T13:03:11;96780.06;;;25.01;46.36
36598;BME280;22607;49.550;11.940;2023-05-20T13:05:38;96782.19;;;25.09;47.29